Roy, Washington
Current Conditions -  °F | °C
As of 8:16 AM on Sunday 23 Nov 2014 (Local Time) from KGRF Reporting Station
Moderate Rain Moderate Rain  
Wind Chill: 41°   Ceiling: 3300
Heat Index: 46°   Visibility: 1.5mi
Dew Point: 46°   Wind: 12mph
Humidity: 100%   Direction: 220°SW
Pressure: 30.12"   Gusts: NA
Location:  47°N, 122.54°W
Report Text: KGRF 231616Z AUTO 22010KT 1 1/2SM RA BR FEW003 OVC033 08/08 A3012 RMK AO2 VIS 1 1/2V3
Loading
Personal Weather Stations






























Interactive Weather Map New forecast layout! Learn more

10-Day Weather Forecast

Advertisements
Track Severe Weather on mobile